createdAt,value
2023-03-31T00:01:15.497Z,99722.50
2023-03-31T00:03:45.290Z,99721.96
2023-03-31T00:06:19.143Z,99715.30
2023-03-31T00:08:52.328Z,99720.02
2023-03-31T00:11:21.887Z,99713.54
2023-03-31T00:13:50.557Z,99715.23
2023-03-31T00:16:18.941Z,99717.45
2023-03-31T00:18:51.387Z,99718.61
2023-03-31T00:21:29.941Z,99713.48
2023-03-31T00:23:58.981Z,99714.64
2023-03-31T00:26:29.992Z,99715.28
2023-03-31T00:28:58.229Z,99711.51
2023-03-31T00:31:27.803Z,99710.08
2023-03-31T00:33:56.470Z,99710.73
2023-03-31T00:36:31.965Z,99711.70
2023-03-31T00:39:06.019Z,99709.61
2023-03-31T00:41:34.640Z,99713.77
2023-03-31T00:44:13.251Z,99714.70
2023-03-31T00:46:52.808Z,99713.05
2023-03-31T00:49:23.124Z,99714.79
2023-03-31T00:51:51.684Z,99715.17
2023-03-31T00:54:21.671Z,99716.61
2023-03-31T00:56:49.794Z,99717.67
2023-03-31T00:59:18.112Z,99718.92
2023-03-31T01:01:46.733Z,99716.27
2023-03-31T01:04:16.579Z,99712.80
2023-03-31T01:06:46.937Z,99715.80
2023-03-31T01:09:17.120Z,99714.56
2023-03-31T01:11:46.598Z,99716.42
2023-03-31T01:14:14.772Z,99715.07
2023-03-31T01:16:45.829Z,99714.73
2023-03-31T01:19:17.898Z,99713.52
2023-03-31T01:21:49.280Z,99710.14
2023-03-31T01:24:38.096Z,99708.98
2023-03-31T01:27:41.702Z,99711.01
2023-03-31T01:30:24.614Z,99716.60
2023-03-31T01:33:10.543Z,99720.15
2023-03-31T01:36:17.959Z,99719.46
2023-03-31T01:39:07.592Z,99721.14
2023-03-31T01:41:39.169Z,99721.59
2023-03-31T01:44:19.478Z,99723.41
2023-03-31T01:47:07.174Z,99723.86
2023-03-31T01:49:41.388Z,99726.71
2023-03-31T01:52:09.568Z,99725.14
2023-03-31T01:54:39.612Z,99729.02
2023-03-31T01:57:14.942Z,99733.07
2023-03-31T01:59:52.597Z,99732.36
2023-03-31T02:02:27.008Z,99736.54
2023-03-31T02:04:59.543Z,99736.85
2023-03-31T02:07:30.227Z,99740.56
2023-03-31T02:09:59.289Z,99735.77
2023-03-31T02:12:28.637Z,99740.97
2023-03-31T02:14:57.409Z,99737.98
2023-03-31T02:17:30.707Z,99737.05
2023-03-31T02:20:09.233Z,99740.34
2023-03-31T02:22:39.254Z,99741.46
2023-03-31T02:25:08.622Z,99746.46
2023-03-31T02:27:40.601Z,99745.86
2023-03-31T02:30:09.493Z,99748.67
2023-03-31T02:32:58.268Z,99752.11
2023-03-31T02:35:26.798Z,99751.72
2023-03-31T02:37:59.132Z,99753.05
2023-03-31T02:40:27.927Z,99756.53
2023-03-31T02:42:57.339Z,99756.65
2023-03-31T02:45:39.342Z,99755.05
2023-03-31T02:48:09.481Z,99757.02
2023-03-31T02:50:59.719Z,99753.41
2023-03-31T02:53:35.638Z,99751.33
2023-03-31T02:56:21.625Z,99747.69
2023-03-31T02:59:02.406Z,99751.21
2023-03-31T03:01:42.355Z,99754.71
2023-03-31T03:04:25.901Z,99753.29
2023-03-31T03:06:55.221Z,99753.74
2023-03-31T03:09:32.092Z,99752.17
2023-03-31T03:12:12.405Z,99753.81
2023-03-31T03:14:40.934Z,99752.08
2023-03-31T03:17:26.063Z,99753.39
2023-03-31T03:19:55.329Z,99752.65
2023-03-31T03:22:23.710Z,99753.48
2023-03-31T03:24:52.480Z,99750.58
2023-03-31T03:27:22.981Z,99753.80
2023-03-31T03:29:51.466Z,99754.08
2023-03-31T03:32:19.713Z,99752.98
2023-03-31T03:34:48.095Z,99750.02
2023-03-31T03:37:16.259Z,99753.42
2023-03-31T03:39:47.631Z,99755.05
2023-03-31T03:42:15.963Z,99756.54
2023-03-31T03:44:45.306Z,99751.06
2023-03-31T03:47:18.178Z,99753.92
2023-03-31T03:49:49.328Z,99750.91
2023-03-31T03:52:18.744Z,99750.63
2023-03-31T03:54:47.054Z,99753.98
2023-03-31T03:57:15.800Z,99750.41
2023-03-31T03:59:44.102Z,99751.81
2023-03-31T04:02:12.935Z,99751.48
2023-03-31T04:04:41.802Z,99753.20
2023-03-31T04:07:10.064Z,99762.15
2023-03-31T04:09:38.213Z,99771.17
2023-03-31T04:12:06.456Z,99773.50
2023-03-31T04:14:34.715Z,99778.91
2023-03-31T04:17:03.775Z,99779.83
2023-03-31T04:19:32.317Z,99783.90
2023-03-31T04:22:03.175Z,99778.25
2023-03-31T04:24:33.380Z,99773.46
2023-03-31T04:27:03.396Z,99778.63
2023-03-31T04:29:37.439Z,99783.84
2023-03-31T04:32:06.280Z,99787.95
2023-03-31T04:34:37.078Z,99782.51
2023-03-31T04:37:05.648Z,99786.05
2023-03-31T04:39:34.060Z,99786.33
2023-03-31T04:42:02.774Z,99790.13
2023-03-31T04:44:31.603Z,99790.02
2023-03-31T04:47:03.351Z,99788.64
2023-03-31T04:49:36.096Z,99787.23
2023-03-31T04:52:04.538Z,99791.84
2023-03-31T04:54:35.357Z,99789.15
2023-03-31T04:57:05.383Z,99787.73
2023-03-31T04:59:33.598Z,99789.89
2023-03-31T05:02:02.481Z,99786.39
2023-03-31T05:04:31.238Z,99776.96
2023-03-31T05:06:59.917Z,99778.04
2023-03-31T05:09:28.138Z,99777.15
2023-03-31T05:11:57.550Z,99776.02
2023-03-31T05:14:26.073Z,99776.63
2023-03-31T05:16:58.349Z,99783.50
2023-03-31T05:19:26.852Z,99785.05
2023-03-31T05:21:55.084Z,99785.04
2023-03-31T05:24:23.251Z,99782.26
2023-03-31T05:26:53.070Z,99780.89
2023-03-31T05:29:21.506Z,99780.65
2023-03-31T05:31:49.850Z,99781.50
2023-03-31T05:34:18.160Z,99784.55
2023-03-31T05:36:48.210Z,99784.73
2023-03-31T05:39:16.409Z,99786.96
2023-03-31T05:41:44.586Z,99788.63
2023-03-31T05:44:13.013Z,99784.75
2023-03-31T05:46:41.584Z,99787.14
2023-03-31T05:49:11.793Z,99784.34
2023-03-31T05:51:40.546Z,99787.05
2023-03-31T05:54:09.042Z,99782.34
2023-03-31T05:56:37.244Z,99789.40
2023-03-31T05:59:06.444Z,99789.29
2023-03-31T06:01:37.216Z,99784.81
2023-03-31T06:04:06.056Z,99783.70
2023-03-31T06:06:37.583Z,99786.64
2023-03-31T06:09:08.496Z,99783.55
2023-03-31T06:11:37.043Z,99781.79
2023-03-31T06:14:05.383Z,99785.67
2023-03-31T06:16:33.838Z,99790.66
2023-03-31T06:19:02.091Z,99788.94
2023-03-31T06:21:30.704Z,99792.30
2023-03-31T06:24:00.605Z,99794.27
2023-03-31T06:26:29.272Z,99790.81
2023-03-31T06:28:57.499Z,99784.35
2023-03-31T06:31:26.114Z,99785.33
2023-03-31T06:33:54.452Z,99783.49
2023-03-31T06:36:22.984Z,99784.48
2023-03-31T06:38:51.599Z,99779.98
2023-03-31T06:41:21.339Z,99779.08
2023-03-31T06:43:49.584Z,99780.30
2023-03-31T06:46:18.409Z,99781.36
2023-03-31T06:48:46.727Z,99776.91
2023-03-31T06:51:15.163Z,99778.96
2023-03-31T06:53:44.086Z,99776.83
2023-03-31T06:56:12.510Z,99776.91
2023-03-31T06:58:42.059Z,99772.96
2023-03-31T07:01:12.112Z,99775.34
2023-03-31T07:03:45.571Z,99777.03
2023-03-31T07:06:13.944Z,99779.87
2023-03-31T07:08:42.543Z,99775.97
2023-03-31T07:11:11.917Z,99764.83
2023-03-31T07:13:42.232Z,99763.73
2023-03-31T07:16:13.848Z,99765.77
2023-03-31T07:18:42.385Z,99766.23
2023-03-31T07:21:11.109Z,99769.66
2023-03-31T07:23:39.944Z,99765.30
2023-03-31T07:26:08.888Z,99761.06
2023-03-31T07:28:39.301Z,99756.02
2023-03-31T07:31:13.936Z,99755.55
2023-03-31T07:33:42.075Z,99755.16
2023-03-31T07:36:13.412Z,99756.80
2023-03-31T07:38:47.004Z,99757.07
2023-03-31T07:41:19.329Z,99751.45
2023-03-31T07:43:47.676Z,99754.35
2023-03-31T07:46:19.671Z,99755.49
2023-03-31T07:48:48.196Z,99754.66
2023-03-31T07:51:17.389Z,99755.64
2023-03-31T07:53:46.575Z,99759.83
2023-03-31T07:56:19.780Z,99758.83
2023-03-31T07:58:48.041Z,99760.17
2023-03-31T08:01:17.359Z,99753.94
2023-03-31T08:03:46.861Z,99755.39
2023-03-31T08:06:18.147Z,99754.95
2023-03-31T08:08:46.385Z,99756.86
2023-03-31T08:11:14.848Z,99751.58
2023-03-31T08:13:43.361Z,99749.16
2023-03-31T08:16:11.593Z,99746.86
2023-03-31T08:18:39.870Z,99750.47
2023-03-31T08:21:10.033Z,99747.02
2023-03-31T08:23:38.130Z,99749.67
2023-03-31T08:26:16.387Z,99754.96
2023-03-31T08:28:46.488Z,99754.66
2023-03-31T08:31:16.612Z,99753.35
2023-03-31T08:33:45.461Z,99754.39
2023-03-31T08:36:13.834Z,99762.67
2023-03-31T08:38:42.352Z,99762.73
2023-03-31T08:41:16.850Z,99766.48
2023-03-31T08:43:45.848Z,99768.70
2023-03-31T08:46:18.208Z,99771.73
2023-03-31T08:48:49.124Z,99769.06
2023-03-31T08:51:21.934Z,99769.09
2023-03-31T08:54:09.038Z,99772.34
2023-03-31T08:56:39.539Z,99765.57
2023-03-31T08:59:13.183Z,99762.79
2023-03-31T09:01:55.475Z,99759.95
2023-03-31T09:04:28.132Z,99753.60
2023-03-31T09:07:15.057Z,99757.90
2023-03-31T09:09:43.641Z,99755.38
2023-03-31T09:12:13.251Z,99756.48
2023-03-31T09:14:46.460Z,99761.60
2023-03-31T09:17:21.893Z,99755.23
2023-03-31T09:20:10.914Z,99761.89
2023-03-31T09:23:02.266Z,99763.67
2023-03-31T09:25:34.531Z,99759.70
2023-03-31T09:28:03.639Z,99752.27
2023-03-31T09:30:32.384Z,99755.31
2023-03-31T09:33:04.981Z,99757.27
2023-03-31T09:35:33.973Z,99756.58
2023-03-31T09:38:02.586Z,99759.29
2023-03-31T09:40:31.058Z,99754.83
2023-03-31T09:43:02.272Z,99758.27
2023-03-31T09:45:30.899Z,99752.28
2023-03-31T09:48:02.856Z,99751.50
2023-03-31T09:50:31.649Z,99748.21
2023-03-31T09:52:59.964Z,99747.27
2023-03-31T09:55:39.753Z,99743.43
2023-03-31T09:58:12.026Z,99743.79
2023-03-31T10:00:41.510Z,99737.52
2023-03-31T10:03:12.794Z,99734.29
2023-03-31T10:06:01.501Z,99732.58
2023-03-31T10:08:34.056Z,99732.65
2023-03-31T10:11:02.177Z,99734.27
2023-03-31T10:13:40.787Z,99730.81
2023-03-31T10:16:12.995Z,99731.06
2023-03-31T10:18:42.668Z,99729.06
2023-03-31T10:21:38.753Z,99723.19
2023-03-31T10:24:10.651Z,99720.48
2023-03-31T10:26:39.190Z,99717.36
2023-03-31T10:29:11.252Z,99715.52
2023-03-31T10:31:39.785Z,99714.91
2023-03-31T10:34:08.303Z,99712.34
2023-03-31T10:36:37.385Z,99708.98
2023-03-31T10:39:06.808Z,99710.23
2023-03-31T10:41:35.646Z,99707.66
2023-03-31T10:44:03.899Z,99702.77
2023-03-31T10:46:40.704Z,99699.16
2023-03-31T10:49:21.273Z,99696.98
2023-03-31T10:51:50.043Z,99697.45
2023-03-31T10:54:18.905Z,99700.94
2023-03-31T10:56:49.360Z,99698.55
2023-03-31T10:59:30.036Z,99696.80
2023-03-31T11:02:17.744Z,99695.48
2023-03-31T11:04:48.700Z,99692.76
2023-03-31T11:07:22.523Z,99686.86
2023-03-31T11:09:57.972Z,99682.21
2023-03-31T11:12:39.208Z,99682.47
2023-03-31T11:15:19.610Z,99679.54
2023-03-31T11:17:48.020Z,99678.56
2023-03-31T11:20:22.252Z,99674.29
2023-03-31T11:23:07.672Z,99669.45
2023-03-31T11:25:40.067Z,99671.52
2023-03-31T11:28:27.842Z,99665.39
2023-03-31T11:31:08.681Z,99660.83
2023-03-31T11:33:47.663Z,99664.52
2023-03-31T11:36:20.055Z,99660.13
2023-03-31T11:38:54.417Z,99651.23
2023-03-31T11:41:28.563Z,99652.73
2023-03-31T11:44:00.152Z,99649.48
2023-03-31T11:46:31.106Z,99648.08
2023-03-31T11:49:04.056Z,99640.73
2023-03-31T11:51:52.919Z,99636.36
2023-03-31T11:54:24.821Z,99634.66
2023-03-31T11:56:53.189Z,99639.50
2023-03-31T11:59:21.495Z,99638.48
2023-03-31T12:01:54.397Z,99632.39
2023-03-31T12:04:35.894Z,99629.33
2023-03-31T12:07:05.323Z,99633.70
2023-03-31T12:09:37.394Z,99628.57
2023-03-31T12:12:07.488Z,99624.45
2023-03-31T12:14:49.300Z,99623.17
2023-03-31T12:17:23.324Z,99620.28
2023-03-31T12:20:02.468Z,99613.08
2023-03-31T12:22:32.902Z,99612.11
2023-03-31T12:25:01.143Z,99610.08
2023-03-31T12:27:43.507Z,99609.25
2023-03-31T12:30:14.797Z,99606.14
2023-03-31T12:32:44.765Z,99604.50
2023-03-31T12:35:19.103Z,99601.68
2023-03-31T12:37:52.285Z,99596.20
2023-03-31T12:40:20.888Z,99593.70
2023-03-31T12:42:49.070Z,99593.77
2023-03-31T12:45:29.645Z,99588.30
2023-03-31T12:48:09.918Z,99588.15
2023-03-31T12:50:56.872Z,99579.73
2023-03-31T12:53:25.222Z,99579.48
2023-03-31T12:55:58.052Z,99571.24
2023-03-31T12:58:32.487Z,99571.85
2023-03-31T13:01:11.797Z,99570.44
2023-03-31T13:03:40.923Z,99565.86
2023-03-31T13:06:12.849Z,99566.81
2023-03-31T13:08:57.079Z,99558.79
2023-03-31T13:11:37.192Z,99559.12
2023-03-31T13:14:21.706Z,99556.81
2023-03-31T13:17:12.162Z,99547.55
2023-03-31T13:19:41.138Z,99548.63
2023-03-31T13:22:21.739Z,99543.98
2023-03-31T13:24:50.065Z,99538.96
2023-03-31T13:27:39.632Z,99537.45
2023-03-31T13:30:21.084Z,99533.57
2023-03-31T13:33:12.637Z,99531.53
2023-03-31T13:35:42.903Z,99526.70
2023-03-31T13:38:16.953Z,99521.34
2023-03-31T13:41:03.774Z,99521.57
2023-03-31T13:43:35.343Z,99516.05
2023-03-31T13:46:24.759Z,99512.98
2023-03-31T13:49:05.239Z,99514.91
2023-03-31T13:51:38.304Z,99507.30
2023-03-31T13:54:17.087Z,99510.39
2023-03-31T13:57:03.986Z,99508.67
2023-03-31T14:00:02.297Z,99506.98
2023-03-31T14:02:40.212Z,99503.67
2023-03-31T14:05:20.846Z,99502.91
2023-03-31T14:07:56.143Z,99501.92
2023-03-31T14:10:31.678Z,99499.67
2023-03-31T14:13:07.568Z,99499.66
2023-03-31T14:15:38.105Z,99496.38
2023-03-31T14:18:07.268Z,99498.12
2023-03-31T14:20:38.316Z,99493.63
2023-03-31T14:23:12.673Z,99492.95
2023-03-31T14:25:44.542Z,99493.46
2023-03-31T14:28:18.744Z,99488.64
2023-03-31T14:31:03.190Z,99488.83
2023-03-31T14:33:52.955Z,99485.91
2023-03-31T14:36:21.541Z,99480.38
2023-03-31T14:38:49.621Z,99482.64
2023-03-31T14:41:20.453Z,99479.73
2023-03-31T14:43:49.226Z,99481.22
2023-03-31T14:46:22.041Z,99481.17
2023-03-31T14:48:50.941Z,99483.51
2023-03-31T14:51:27.321Z,99484.96
2023-03-31T14:53:59.019Z,99482.16
2023-03-31T14:56:35.004Z,99485.08
2023-03-31T14:59:03.851Z,99484.82
2023-03-31T15:01:35.923Z,99486.82
2023-03-31T15:04:08.688Z,99487.33
2023-03-31T15:06:40.068Z,99488.52
2023-03-31T15:09:08.506Z,99482.27
2023-03-31T15:11:36.759Z,99484.38
2023-03-31T15:14:05.988Z,99483.48
2023-03-31T15:16:45.279Z,99483.77
2023-03-31T15:19:20.226Z,99487.55
2023-03-31T15:21:56.626Z,99487.50
2023-03-31T15:24:24.793Z,99490.98
2023-03-31T15:26:53.012Z,99495.89
2023-03-31T15:29:30.645Z,99495.50
2023-03-31T15:31:59.134Z,99496.90
2023-03-31T15:34:30.056Z,99506.38
2023-03-31T15:36:59.882Z,99503.73
2023-03-31T15:39:31.472Z,99508.02
2023-03-31T15:42:01.210Z,99509.39
2023-03-31T15:44:39.665Z,99513.10
2023-03-31T15:47:08.036Z,99516.27
2023-03-31T15:49:36.422Z,99516.21
2023-03-31T15:52:04.754Z,99514.65
2023-03-31T15:54:38.185Z,99517.72
2023-03-31T15:57:07.287Z,99517.85
2023-03-31T15:59:55.522Z,99517.43
2023-03-31T16:02:43.600Z,99522.36
2023-03-31T16:05:53.350Z,99526.77
2023-03-31T16:08:31.454Z,99524.45
2023-03-31T16:11:01.614Z,99529.40
2023-03-31T16:13:34.110Z,99532.83
2023-03-31T16:16:02.728Z,99534.02
2023-03-31T16:18:33.120Z,99535.01
2023-03-31T16:21:02.246Z,99536.16
2023-03-31T16:23:32.140Z,99542.64
2023-03-31T16:26:00.685Z,99543.09
2023-03-31T16:28:34.679Z,99544.75
2023-03-31T16:31:03.780Z,99542.44
2023-03-31T16:33:52.294Z,99547.34
2023-03-31T16:36:20.693Z,99539.80
2023-03-31T16:38:51.537Z,99547.59
2023-03-31T16:41:20.066Z,99552.08
2023-03-31T16:43:49.717Z,99555.73
2023-03-31T16:46:18.309Z,99560.08
2023-03-31T16:48:46.714Z,99562.55
2023-03-31T16:51:17.527Z,99565.89
2023-03-31T16:53:46.185Z,99565.95
2023-03-31T16:56:14.380Z,99570.52
2023-03-31T16:58:43.836Z,99570.08
2023-03-31T17:01:12.725Z,99569.29
2023-03-31T17:03:43.148Z,99577.64
2023-03-31T17:06:12.241Z,99577.73
2023-03-31T17:08:40.586Z,99580.20
2023-03-31T17:11:12.061Z,99578.58
2023-03-31T17:13:40.470Z,99587.45
2023-03-31T17:16:18.365Z,99591.50
2023-03-31T17:18:51.412Z,99595.39
2023-03-31T17:21:19.647Z,99597.73
2023-03-31T17:23:49.943Z,99599.83
2023-03-31T17:26:18.742Z,99601.45
2023-03-31T17:28:47.069Z,99598.43
2023-03-31T17:31:16.453Z,99603.33
2023-03-31T17:33:45.117Z,99601.67
2023-03-31T17:36:13.629Z,99604.64
2023-03-31T17:38:42.891Z,99607.27
2023-03-31T17:41:11.615Z,99612.28
2023-03-31T17:43:44.294Z,99613.35
2023-03-31T17:46:13.132Z,99617.86
2023-03-31T17:48:43.895Z,99619.64
2023-03-31T17:51:15.924Z,99619.69
2023-03-31T17:53:49.190Z,99623.20
2023-03-31T17:56:17.643Z,99626.35
2023-03-31T17:58:46.493Z,99626.94
2023-03-31T18:01:16.539Z,99626.46
2023-03-31T18:03:46.539Z,99623.21
2023-03-31T18:06:19.368Z,99631.00
2023-03-31T18:08:48.081Z,99628.29
2023-03-31T18:11:16.343Z,99626.09
2023-03-31T18:13:54.281Z,99630.43
2023-03-31T18:16:22.872Z,99630.13
2023-03-31T18:18:51.096Z,99626.73
2023-03-31T18:21:27.253Z,99630.89
2023-03-31T18:23:55.524Z,99632.99
2023-03-31T18:26:23.968Z,99630.59
2023-03-31T18:28:55.335Z,99630.80
2023-03-31T18:31:25.204Z,99625.98
2023-03-31T18:33:54.837Z,99626.52
2023-03-31T18:36:23.385Z,99632.89
2023-03-31T18:38:51.850Z,99637.23
2023-03-31T18:41:23.267Z,99634.34
2023-03-31T18:43:52.428Z,99635.23
2023-03-31T18:46:21.218Z,99632.70
2023-03-31T18:48:49.409Z,99629.46
2023-03-31T18:51:17.660Z,99629.80
2023-03-31T18:53:47.656Z,99632.91
2023-03-31T18:56:16.361Z,99630.18
2023-03-31T18:58:45.321Z,99638.96
2023-03-31T19:01:13.763Z,99631.77
2023-03-31T19:03:44.597Z,99634.90
2023-03-31T19:06:14.101Z,99635.95
2023-03-31T19:08:46.545Z,99635.63
2023-03-31T19:11:15.854Z,99638.09
2023-03-31T19:13:44.087Z,99637.25
2023-03-31T19:16:32.300Z,99635.23
2023-03-31T19:19:04.052Z,99638.15
2023-03-31T19:21:33.464Z,99635.44
2023-03-31T19:24:01.728Z,99630.11
2023-03-31T19:26:30.714Z,99630.29
2023-03-31T19:28:59.451Z,99627.89
2023-03-31T19:31:38.466Z,99628.92
2023-03-31T19:34:07.078Z,99628.43
2023-03-31T19:36:35.627Z,99623.45
2023-03-31T19:39:06.497Z,99625.86
2023-03-31T19:41:35.291Z,99626.73
2023-03-31T19:44:04.377Z,99626.73
2023-03-31T19:46:32.620Z,99622.47
2023-03-31T19:49:01.756Z,99622.65
2023-03-31T19:51:31.884Z,99625.23
2023-03-31T19:54:00.208Z,99623.52
2023-03-31T19:56:32.868Z,99626.27
2023-03-31T19:59:01.599Z,99627.30
2023-03-31T20:01:30.008Z,99625.27
2023-03-31T20:03:59.712Z,99622.88
2023-03-31T20:06:28.898Z,99625.64
2023-03-31T20:08:58.278Z,99624.45
2023-03-31T20:11:27.757Z,99627.89
2023-03-31T20:13:56.839Z,99630.80
2023-03-31T20:16:25.663Z,99629.61
2023-03-31T20:18:56.809Z,99631.31
2023-03-31T20:21:26.393Z,99634.23
2023-03-31T20:23:57.489Z,99633.56
2023-03-31T20:26:26.530Z,99633.58
2023-03-31T20:28:56.207Z,99635.30
2023-03-31T20:31:25.751Z,99636.52
2023-03-31T20:33:54.448Z,99635.84
2023-03-31T20:36:26.338Z,99638.60
2023-03-31T20:38:55.086Z,99638.44
2023-03-31T20:41:24.072Z,99640.67
2023-03-31T20:43:52.465Z,99642.90
2023-03-31T20:46:20.767Z,99641.52
2023-03-31T20:48:51.536Z,99640.00
2023-03-31T20:51:20.551Z,99634.34
2023-03-31T20:53:49.490Z,99634.36
2023-03-31T20:56:18.678Z,99633.52
2023-03-31T20:58:47.137Z,99640.73
2023-03-31T21:01:15.564Z,99635.44
2023-03-31T21:03:52.096Z,99629.61
2023-03-31T21:06:21.357Z,99640.95
2023-03-31T21:08:52.821Z,99634.80
2023-03-31T21:11:22.879Z,99642.02
2023-03-31T21:13:51.458Z,99640.99
2023-03-31T21:16:20.230Z,99643.06
2023-03-31T21:18:49.397Z,99647.38
2023-03-31T21:21:19.496Z,99649.10
2023-03-31T21:23:49.820Z,99647.76
2023-03-31T21:26:18.108Z,99648.61
2023-03-31T21:28:46.351Z,99645.53
2023-03-31T21:31:15.465Z,99647.25
2023-03-31T21:33:44.728Z,99643.15
2023-03-31T21:36:13.854Z,99643.14
2023-03-31T21:38:42.277Z,99638.69
2023-03-31T21:41:11.498Z,99639.20
2023-03-31T21:43:40.231Z,99635.61
2023-03-31T21:46:08.578Z,99634.23
2023-03-31T21:48:37.284Z,99639.40
2023-03-31T21:51:05.527Z,99636.14
2023-03-31T21:53:34.619Z,99637.02
2023-03-31T21:56:02.918Z,99634.95
2023-03-31T21:58:31.621Z,99638.40
2023-03-31T22:01:00.589Z,99629.13
2023-03-31T22:03:32.296Z,99635.81
2023-03-31T22:06:04.686Z,99631.02
2023-03-31T22:08:32.951Z,99631.70
2023-03-31T22:11:04.584Z,99626.23
2023-03-31T22:13:33.253Z,99622.63
2023-03-31T22:16:02.257Z,99632.59
2023-03-31T22:18:31.470Z,99628.98
2023-03-31T22:21:01.121Z,99630.19
2023-03-31T22:23:33.884Z,99628.64
2023-03-31T22:26:01.998Z,99635.31
2023-03-31T22:28:30.514Z,99635.83
2023-03-31T22:30:58.709Z,99632.06
2023-03-31T22:33:27.971Z,99635.14
2023-03-31T22:35:56.318Z,99630.00
2023-03-31T22:38:24.464Z,99628.29
2023-03-31T22:40:52.613Z,99626.06
2023-03-31T22:43:21.153Z,99632.08
2023-03-31T22:45:49.385Z,99627.63
2023-03-31T22:48:18.469Z,99626.08
2023-03-31T22:50:47.000Z,99629.34
2023-03-31T22:53:15.293Z,99627.26
2023-03-31T22:55:44.300Z,99628.30
2023-03-31T22:58:22.925Z,99622.95
2023-03-31T23:00:57.596Z,99625.55
2023-03-31T23:03:27.211Z,99624.16
2023-03-31T23:05:55.525Z,99622.98
2023-03-31T23:08:24.312Z,99624.68
2023-03-31T23:10:56.814Z,99621.58
2023-03-31T23:13:28.730Z,99622.79
2023-03-31T23:16:02.486Z,99618.67
2023-03-31T23:18:30.954Z,99617.64
2023-03-31T23:21:01.351Z,99613.02
2023-03-31T23:23:29.651Z,99613.52
2023-03-31T23:26:00.764Z,99608.05
2023-03-31T23:28:30.161Z,99606.86
2023-03-31T23:30:58.390Z,99607.73
2023-03-31T23:33:27.812Z,99611.52
2023-03-31T23:36:00.433Z,99606.37
2023-03-31T23:38:29.568Z,99612.21
2023-03-31T23:40:58.259Z,99608.43
2023-03-31T23:43:27.982Z,99607.58
2023-03-31T23:45:56.638Z,99600.71
2023-03-31T23:48:25.238Z,99598.32
2023-03-31T23:50:53.558Z,99597.27
2023-03-31T23:53:22.151Z,99600.72
2023-03-31T23:55:58.064Z,99595.73
2023-03-31T23:58:26.485Z,99599.67
